sim
Sign-in with your pilot id or email,
or register
Callsign
Passwort

Schedule Details

Flight Number: EWG1783 (5)
Departure: Palma de Mallorca Airport (LEPA) at 09:50
Arrival: Munich Airport (EDDM) at 12:00
Route: Eurowings Passenger Schedule. Enter filed route here before submitting Pirep.

Weather Information
Getting current METAR information for LEPA 260930Z 35005G15KT 270V080 9999 FEW025 SCT045 19/11 Q1016 NOSIG
Getting current METAR information for EDDM 260920Z 26022G32KT 9999 -DZRA SCT017 BKN025 08/04 Q1000 NOSIG

Schedule Frequency

Route Map